sensor_id;sensor_type;location;lat;lon;timestamp;P1;durP1;ratioP1;P2;durP2;ratioP2
80227;SDS011;69539;42.138;24.742;2023-05-20T00:00:47;9.13;;;7.55;;
80227;SDS011;69539;42.138;24.742;2023-05-20T00:03:13;9.82;;;7.70;;
80227;SDS011;69539;42.138;24.742;2023-05-20T00:05:39;10.85;;;7.70;;
80227;SDS011;69539;42.138;24.742;2023-05-20T00:08:05;9.60;;;8.30;;
80227;SDS011;69539;42.138;24.742;2023-05-20T00:10:33;9.88;;;8.05;;
80227;SDS011;69539;42.138;24.742;2023-05-20T00:12:59;9.75;;;7.65;;
80227;SDS011;69539;42.138;24.742;2023-05-20T00:15:25;10.00;;;7.80;;
80227;SDS011;69539;42.138;24.742;2023-05-20T00:17:51;9.68;;;7.63;;
80227;SDS011;69539;42.138;24.742;2023-05-20T00:20:17;10.32;;;7.68;;
80227;SDS011;69539;42.138;24.742;2023-05-20T00:22:43;10.27;;;7.50;;
80227;SDS011;69539;42.138;24.742;2023-05-20T00:25:08;10.15;;;7.40;;
80227;SDS011;69539;42.138;24.742;2023-05-20T00:27:34;10.07;;;7.47;;
80227;SDS011;69539;42.138;24.742;2023-05-20T00:30:00;10.13;;;7.63;;
80227;SDS011;69539;42.138;24.742;2023-05-20T00:32:26;9.25;;;7.80;;
80227;SDS011;69539;42.138;24.742;2023-05-20T00:34:55;10.85;;;8.00;;
80227;SDS011;69539;42.138;24.742;2023-05-20T00:37:22;8.88;;;7.70;;
80227;SDS011;69539;42.138;24.742;2023-05-20T00:39:48;10.27;;;7.75;;
80227;SDS011;69539;42.138;24.742;2023-05-20T00:42:23;9.38;;;7.63;;
80227;SDS011;69539;42.138;24.742;2023-05-20T00:44:50;10.40;;;8.15;;
80227;SDS011;69539;42.138;24.742;2023-05-20T00:47:17;9.85;;;7.55;;
80227;SDS011;69539;42.138;24.742;2023-05-20T00:49:44;10.05;;;7.68;;
80227;SDS011;69539;42.138;24.742;2023-05-20T00:52:13;8.95;;;7.55;;
80227;SDS011;69539;42.138;24.742;2023-05-20T00:54:39;10.73;;;8.00;;
80227;SDS011;69539;42.138;24.742;2023-05-20T00:57:05;12.60;;;8.07;;
80227;SDS011;69539;42.138;24.742;2023-05-20T00:59:35;10.52;;;8.50;;
80227;SDS011;69539;42.138;24.742;2023-05-20T01:02:02;12.82;;;8.35;;
80227;SDS011;69539;42.138;24.742;2023-05-20T01:04:28;10.75;;;8.63;;
80227;SDS011;69539;42.138;24.742;2023-05-20T01:06:55;11.10;;;8.70;;
80227;SDS011;69539;42.138;24.742;2023-05-20T01:09:22;12.93;;;8.85;;
80227;SDS011;69539;42.138;24.742;2023-05-20T01:17:45;11.82;;;9.07;;
80227;SDS011;69539;42.138;24.742;2023-05-20T01:20:14;11.35;;;8.85;;
80227;SDS011;69539;42.138;24.742;2023-05-20T01:22:52;12.30;;;9.10;;
80227;SDS011;69539;42.138;24.742;2023-05-20T01:25:19;13.10;;;9.25;;
80227;SDS011;69539;42.138;24.742;2023-05-20T01:27:45;11.07;;;8.70;;
80227;SDS011;69539;42.138;24.742;2023-05-20T01:30:13;11.63;;;8.48;;
80227;SDS011;69539;42.138;24.742;2023-05-20T01:32:42;12.93;;;9.02;;
80227;SDS011;69539;42.138;24.742;2023-05-20T01:37:45;11.13;;;8.75;;
80227;SDS011;69539;42.138;24.742;2023-05-20T01:40:13;11.93;;;8.65;;
80227;SDS011;69539;42.138;24.742;2023-05-20T01:42:40;11.38;;;8.23;;
80227;SDS011;69539;42.138;24.742;2023-05-20T01:45:07;10.63;;;8.45;;
80227;SDS011;69539;42.138;24.742;2023-05-20T01:47:33;12.43;;;8.98;;
80227;SDS011;69539;42.138;24.742;2023-05-20T01:49:59;9.48;;;7.93;;
80227;SDS011;69539;42.138;24.742;2023-05-20T01:52:25;10.15;;;8.32;;
80227;SDS011;69539;42.138;24.742;2023-05-20T01:54:50;13.48;;;8.95;;
80227;SDS011;69539;42.138;24.742;2023-05-20T01:57:20;11.50;;;8.77;;
80227;SDS011;69539;42.138;24.742;2023-05-20T01:59:46;10.80;;;8.35;;
80227;SDS011;69539;42.138;24.742;2023-05-20T02:02:13;14.20;;;8.77;;
80227;SDS011;69539;42.138;24.742;2023-05-20T02:04:38;11.18;;;9.00;;
80227;SDS011;69539;42.138;24.742;2023-05-20T02:07:06;10.93;;;8.63;;
80227;SDS011;69539;42.138;24.742;2023-05-20T02:09:32;11.18;;;8.80;;
80227;SDS011;69539;42.138;24.742;2023-05-20T02:11:57;12.25;;;8.75;;
80227;SDS011;69539;42.138;24.742;2023-05-20T02:14:23;11.30;;;9.23;;
80227;SDS011;69539;42.138;24.742;2023-05-20T02:16:49;14.18;;;9.52;;
80227;SDS011;69539;42.138;24.742;2023-05-20T02:19:14;11.75;;;8.38;;
80227;SDS011;69539;42.138;24.742;2023-05-20T02:21:47;11.55;;;8.57;;
80227;SDS011;69539;42.138;24.742;2023-05-20T02:24:13;9.60;;;8.15;;
80227;SDS011;69539;42.138;24.742;2023-05-20T02:26:40;10.02;;;8.32;;
80227;SDS011;69539;42.138;24.742;2023-05-20T02:29:06;10.77;;;8.70;;
80227;SDS011;69539;42.138;24.742;2023-05-20T02:31:31;10.68;;;8.55;;
80227;SDS011;69539;42.138;24.742;2023-05-20T02:33:57;11.45;;;8.20;;
80227;SDS011;69539;42.138;24.742;2023-05-20T02:36:23;12.73;;;9.30;;
80227;SDS011;69539;42.138;24.742;2023-05-20T02:38:48;12.25;;;8.95;;
80227;SDS011;69539;42.138;24.742;2023-05-20T02:41:15;12.82;;;8.80;;
80227;SDS011;69539;42.138;24.742;2023-05-20T02:43:40;11.98;;;9.23;;
80227;SDS011;69539;42.138;24.742;2023-05-20T02:46:08;10.03;;;8.33;;
80227;SDS011;69539;42.138;24.742;2023-05-20T02:48:34;11.63;;;8.20;;
80227;SDS011;69539;42.138;24.742;2023-05-20T02:50:59;11.13;;;8.48;;
80227;SDS011;69539;42.138;24.742;2023-05-20T02:53:25;10.75;;;8.60;;
80227;SDS011;69539;42.138;24.742;2023-05-20T02:55:51;9.43;;;8.07;;
80227;SDS011;69539;42.138;24.742;2023-05-20T02:58:16;10.93;;;8.85;;
80227;SDS011;69539;42.138;24.742;2023-05-20T03:00:42;12.15;;;8.95;;
80227;SDS011;69539;42.138;24.742;2023-05-20T03:03:08;10.02;;;8.15;;
80227;SDS011;69539;42.138;24.742;2023-05-20T03:05:37;11.50;;;8.43;;
80227;SDS011;69539;42.138;24.742;2023-05-20T03:08:07;12.00;;;8.65;;
80227;SDS011;69539;42.138;24.742;2023-05-20T03:10:37;10.02;;;7.90;;
80227;SDS011;69539;42.138;24.742;2023-05-20T03:13:04;11.05;;;8.15;;
80227;SDS011;69539;42.138;24.742;2023-05-20T03:15:35;9.70;;;8.10;;
80227;SDS011;69539;42.138;24.742;2023-05-20T03:18:04;10.77;;;8.73;;
80227;SDS011;69539;42.138;24.742;2023-05-20T03:20:31;11.07;;;8.13;;
80227;SDS011;69539;42.138;24.742;2023-05-20T03:22:57;11.13;;;8.70;;
80227;SDS011;69539;42.138;24.742;2023-05-20T03:25:23;11.75;;;8.80;;
80227;SDS011;69539;42.138;24.742;2023-05-20T03:27:50;12.40;;;8.48;;
80227;SDS011;69539;42.138;24.742;2023-05-20T03:30:16;10.63;;;8.43;;
80227;SDS011;69539;42.138;24.742;2023-05-20T03:32:41;11.30;;;8.05;;
80227;SDS011;69539;42.138;24.742;2023-05-20T03:35:07;13.73;;;8.60;;
80227;SDS011;69539;42.138;24.742;2023-05-20T03:37:34;9.77;;;8.27;;
80227;SDS011;69539;42.138;24.742;2023-05-20T03:40:00;11.38;;;8.63;;
80227;SDS011;69539;42.138;24.742;2023-05-20T03:42:26;11.63;;;8.07;;
80227;SDS011;69539;42.138;24.742;2023-05-20T03:44:52;15.13;;;8.10;;
80227;SDS011;69539;42.138;24.742;2023-05-20T03:47:17;10.23;;;7.97;;
80227;SDS011;69539;42.138;24.742;2023-05-20T03:49:43;10.15;;;8.05;;
80227;SDS011;69539;42.138;24.742;2023-05-20T03:52:09;11.27;;;8.40;;
80227;SDS011;69539;42.138;24.742;2023-05-20T03:54:34;9.50;;;8.50;;
80227;SDS011;69539;42.138;24.742;2023-05-20T03:57:01;10.10;;;7.95;;
80227;SDS011;69539;42.138;24.742;2023-05-20T03:59:27;12.32;;;8.15;;
80227;SDS011;69539;42.138;24.742;2023-05-20T04:01:53;10.98;;;7.70;;
80227;SDS011;69539;42.138;24.742;2023-05-20T04:04:20;11.52;;;8.25;;
80227;SDS011;69539;42.138;24.742;2023-05-20T04:06:46;11.60;;;7.97;;
80227;SDS011;69539;42.138;24.742;2023-05-20T04:09:12;10.00;;;8.15;;
80227;SDS011;69539;42.138;24.742;2023-05-20T04:11:37;11.25;;;8.48;;
80227;SDS011;69539;42.138;24.742;2023-05-20T04:14:03;11.38;;;8.65;;
80227;SDS011;69539;42.138;24.742;2023-05-20T04:16:29;11.82;;;8.57;;
80227;SDS011;69539;42.138;24.742;2023-05-20T04:18:55;10.80;;;8.85;;
80227;SDS011;69539;42.138;24.742;2023-05-20T04:21:23;12.38;;;8.15;;
80227;SDS011;69539;42.138;24.742;2023-05-20T04:23:48;11.75;;;8.70;;
80227;SDS011;69539;42.138;24.742;2023-05-20T04:26:14;12.82;;;8.40;;
80227;SDS011;69539;42.138;24.742;2023-05-20T04:28:40;11.48;;;8.43;;
80227;SDS011;69539;42.138;24.742;2023-05-20T04:31:06;11.43;;;9.13;;
80227;SDS011;69539;42.138;24.742;2023-05-20T04:33:32;12.90;;;9.07;;
80227;SDS011;69539;42.138;24.742;2023-05-20T04:36:01;13.15;;;9.13;;
80227;SDS011;69539;42.138;24.742;2023-05-20T04:38:29;12.35;;;9.32;;
80227;SDS011;69539;42.138;24.742;2023-05-20T04:40:56;12.75;;;9.35;;
80227;SDS011;69539;42.138;24.742;2023-05-20T04:43:23;12.05;;;8.35;;
80227;SDS011;69539;42.138;24.742;2023-05-20T04:45:58;11.35;;;8.20;;
80227;SDS011;69539;42.138;24.742;2023-05-20T04:48:25;10.85;;;8.13;;
80227;SDS011;69539;42.138;24.742;2023-05-20T04:50:51;9.68;;;8.20;;
80227;SDS011;69539;42.138;24.742;2023-05-20T04:53:18;12.50;;;9.02;;
80227;SDS011;69539;42.138;24.742;2023-05-20T04:55:45;11.33;;;8.87;;
80227;SDS011;69539;42.138;24.742;2023-05-20T04:58:12;11.80;;;9.05;;
80227;SDS011;69539;42.138;24.742;2023-05-20T05:00:44;13.82;;;9.25;;
80227;SDS011;69539;42.138;24.742;2023-05-20T05:03:10;12.43;;;9.07;;
80227;SDS011;69539;42.138;24.742;2023-05-20T05:05:39;12.30;;;9.52;;
80227;SDS011;69539;42.138;24.742;2023-05-20T05:08:06;13.40;;;9.40;;
80227;SDS011;69539;42.138;24.742;2023-05-20T05:10:32;12.43;;;9.05;;
80227;SDS011;69539;42.138;24.742;2023-05-20T05:12:58;12.82;;;9.50;;
80227;SDS011;69539;42.138;24.742;2023-05-20T05:15:24;13.40;;;9.52;;
80227;SDS011;69539;42.138;24.742;2023-05-20T05:17:50;11.98;;;9.20;;
80227;SDS011;69539;42.138;24.742;2023-05-20T05:20:16;13.13;;;9.68;;
80227;SDS011;69539;42.138;24.742;2023-05-20T05:22:42;13.40;;;9.88;;
80227;SDS011;69539;42.138;24.742;2023-05-20T05:25:08;11.50;;;9.60;;
80227;SDS011;69539;42.138;24.742;2023-05-20T05:27:35;11.38;;;9.32;;
80227;SDS011;69539;42.138;24.742;2023-05-20T05:30:01;11.10;;;9.13;;
80227;SDS011;69539;42.138;24.742;2023-05-20T05:32:27;11.70;;;9.48;;
80227;SDS011;69539;42.138;24.742;2023-05-20T05:34:53;10.18;;;9.05;;
80227;SDS011;69539;42.138;24.742;2023-05-20T05:37:19;11.75;;;9.63;;
80227;SDS011;69539;42.138;24.742;2023-05-20T05:39:45;12.45;;;9.43;;
80227;SDS011;69539;42.138;24.742;2023-05-20T05:42:10;12.57;;;9.80;;
80227;SDS011;69539;42.138;24.742;2023-05-20T05:44:36;13.68;;;9.75;;
80227;SDS011;69539;42.138;24.742;2023-05-20T05:47:02;13.05;;;9.93;;
80227;SDS011;69539;42.138;24.742;2023-05-20T05:49:29;11.83;;;9.50;;
80227;SDS011;69539;42.138;24.742;2023-05-20T05:51:55;12.25;;;10.05;;
80227;SDS011;69539;42.138;24.742;2023-05-20T05:54:20;11.25;;;9.38;;
80227;SDS011;69539;42.138;24.742;2023-05-20T05:56:46;10.95;;;9.75;;
80227;SDS011;69539;42.138;24.742;2023-05-20T05:59:12;11.77;;;9.48;;
80227;SDS011;69539;42.138;24.742;2023-05-20T06:01:37;13.57;;;9.20;;
80227;SDS011;69539;42.138;24.742;2023-05-20T06:04:03;11.43;;;9.45;;
80227;SDS011;69539;42.138;24.742;2023-05-20T06:06:29;12.02;;;10.07;;
80227;SDS011;69539;42.138;24.742;2023-05-20T06:08:55;12.25;;;9.63;;
80227;SDS011;69539;42.138;24.742;2023-05-20T06:11:22;145.52;;;129.77;;
80227;SDS011;69539;42.138;24.742;2023-05-20T06:13:48;190.50;;;169.68;;
80227;SDS011;69539;42.138;24.742;2023-05-20T06:16:14;178.70;;;153.77;;
80227;SDS011;69539;42.138;24.742;2023-05-20T06:18:40;141.35;;;125.30;;
80227;SDS011;69539;42.138;24.742;2023-05-20T06:21:06;188.32;;;168.77;;
80227;SDS011;69539;42.138;24.742;2023-05-20T06:23:32;150.15;;;134.15;;
80227;SDS011;69539;42.138;24.742;2023-05-20T06:25:58;290.65;;;244.27;;
80227;SDS011;69539;42.138;24.742;2023-05-20T06:28:24;157.68;;;133.80;;
80227;SDS011;69539;42.138;24.742;2023-05-20T06:30:51;74.30;;;65.80;;
80227;SDS011;69539;42.138;24.742;2023-05-20T06:33:18;65.28;;;57.47;;
80227;SDS011;69539;42.138;24.742;2023-05-20T06:35:45;49.25;;;43.97;;
80227;SDS011;69539;42.138;24.742;2023-05-20T06:38:11;40.83;;;36.53;;
80227;SDS011;69539;42.138;24.742;2023-05-20T06:40:37;31.15;;;27.23;;
80227;SDS011;69539;42.138;24.742;2023-05-20T06:43:02;24.10;;;21.60;;
80227;SDS011;69539;42.138;24.742;2023-05-20T06:45:28;18.75;;;16.15;;
80227;SDS011;69539;42.138;24.742;2023-05-20T06:47:54;16.80;;;15.00;;
80227;SDS011;69539;42.138;24.742;2023-05-20T06:50:20;15.20;;;13.43;;
80227;SDS011;69539;42.138;24.742;2023-05-20T06:52:46;73.63;;;66.53;;
80227;SDS011;69539;42.138;24.742;2023-05-20T06:55:11;185.38;;;166.10;;
80227;SDS011;69539;42.138;24.742;2023-05-20T06:57:37;293.67;;;262.50;;
80227;SDS011;69539;42.138;24.742;2023-05-20T07:00:03;242.68;;;216.23;;
80227;SDS011;69539;42.138;24.742;2023-05-20T07:02:31;145.95;;;129.77;;
80227;SDS011;69539;42.138;24.742;2023-05-20T07:04:57;118.65;;;106.25;;
80227;SDS011;69539;42.138;24.742;2023-05-20T07:07:23;295.48;;;263.13;;
80227;SDS011;69539;42.138;24.742;2023-05-20T07:09:49;269.60;;;240.52;;
80227;SDS011;69539;42.138;24.742;2023-05-20T07:12:14;156.60;;;139.27;;
80227;SDS011;69539;42.138;24.742;2023-05-20T07:14:41;79.45;;;71.13;;
80227;SDS011;69539;42.138;24.742;2023-05-20T07:17:06;61.15;;;54.85;;
80227;SDS011;69539;42.138;24.742;2023-05-20T07:19:32;167.80;;;152.80;;
80227;SDS011;69539;42.138;24.742;2023-05-20T07:21:58;454.90;;;406.58;;
80227;SDS011;69539;42.138;24.742;2023-05-20T07:24:24;563.85;;;507.63;;
80227;SDS011;69539;42.138;24.742;2023-05-20T07:26:50;407.92;;;363.27;;
80227;SDS011;69539;42.138;24.742;2023-05-20T07:29:16;310.75;;;278.70;;
80227;SDS011;69539;42.138;24.742;2023-05-20T07:31:42;580.60;;;524.67;;
80227;SDS011;69539;42.138;24.742;2023-05-20T07:34:07;783.35;;;703.72;;
80227;SDS011;69539;42.138;24.742;2023-05-20T07:36:33;440.48;;;393.75;;
80227;SDS011;69539;42.138;24.742;2023-05-20T07:38:59;301.23;;;268.73;;
80227;SDS011;69539;42.138;24.742;2023-05-20T07:41:25;226.98;;;202.88;;
80227;SDS011;69539;42.138;24.742;2023-05-20T07:43:51;131.27;;;117.07;;
80227;SDS011;69539;42.138;24.742;2023-05-20T07:46:16;64.35;;;57.20;;
80227;SDS011;69539;42.138;24.742;2023-05-20T07:48:42;43.72;;;39.33;;
80227;SDS011;69539;42.138;24.742;2023-05-20T07:51:09;122.93;;;109.95;;
80227;SDS011;69539;42.138;24.742;2023-05-20T07:53:35;349.25;;;302.73;;
80227;SDS011;69539;42.138;24.742;2023-05-20T07:56:01;416.40;;;370.77;;
80227;SDS011;69539;42.138;24.742;2023-05-20T07:58:27;374.75;;;328.77;;
80227;SDS011;69539;42.138;24.742;2023-05-20T08:00:53;237.65;;;211.93;;
80227;SDS011;69539;42.138;24.742;2023-05-20T08:03:18;152.00;;;132.00;;
80227;SDS011;69539;42.138;24.742;2023-05-20T08:05:46;247.70;;;221.82;;
80227;SDS011;69539;42.138;24.742;2023-05-20T08:08:12;493.85;;;441.67;;
80227;SDS011;69539;42.138;24.742;2023-05-20T08:10:37;552.83;;;496.40;;
80227;SDS011;69539;42.138;24.742;2023-05-20T08:13:03;263.35;;;234.18;;
80227;SDS011;69539;42.138;24.742;2023-05-20T08:15:28;61.50;;;54.45;;
80227;SDS011;69539;42.138;24.742;2023-05-20T08:17:54;29.52;;;26.33;;
80227;SDS011;69539;42.138;24.742;2023-05-20T08:20:20;19.75;;;17.50;;
80227;SDS011;69539;42.138;24.742;2023-05-20T08:22:46;14.50;;;13.00;;
80227;SDS011;69539;42.138;24.742;2023-05-20T08:25:11;60.20;;;54.65;;
80227;SDS011;69539;42.138;24.742;2023-05-20T08:27:37;73.50;;;65.70;;
80227;SDS011;69539;42.138;24.742;2023-05-20T08:30:04;225.75;;;176.65;;
80227;SDS011;69539;42.138;24.742;2023-05-20T08:32:32;142.52;;;112.85;;
80227;SDS011;69539;42.138;24.742;2023-05-20T08:34:57;58.92;;;48.80;;
80227;SDS011;69539;42.138;24.742;2023-05-20T08:37:25;23.08;;;19.73;;
80227;SDS011;69539;42.138;24.742;2023-05-20T08:39:52;19.80;;;16.35;;
80227;SDS011;69539;42.138;24.742;2023-05-20T08:42:21;15.00;;;12.95;;
80227;SDS011;69539;42.138;24.742;2023-05-20T08:44:48;11.38;;;8.80;;
80227;SDS011;69539;42.138;24.742;2023-05-20T08:47:21;9.23;;;7.65;;
80227;SDS011;69539;42.138;24.742;2023-05-20T08:49:50;8.77;;;7.20;;
80227;SDS011;69539;42.138;24.742;2023-05-20T08:52:16;9.82;;;6.53;;
80227;SDS011;69539;42.138;24.742;2023-05-20T08:54:47;8.98;;;6.90;;
80227;SDS011;69539;42.138;24.742;2023-05-20T08:57:13;8.63;;;7.00;;
80227;SDS011;69539;42.138;24.742;2023-05-20T08:59:40;8.13;;;6.90;;
80227;SDS011;69539;42.138;24.742;2023-05-20T09:02:08;23.63;;;19.42;;
80227;SDS011;69539;42.138;24.742;2023-05-20T09:04:35;272.83;;;244.18;;
80227;SDS011;69539;42.138;24.742;2023-05-20T09:07:01;73.05;;;65.68;;
80227;SDS011;69539;42.138;24.742;2023-05-20T09:09:27;24.60;;;22.00;;
80227;SDS011;69539;42.138;24.742;2023-05-20T09:11:54;17.17;;;15.48;;
80227;SDS011;69539;42.138;24.742;2023-05-20T09:14:19;12.80;;;8.60;;
80227;SDS011;69539;42.138;24.742;2023-05-20T09:16:46;11.02;;;8.07;;
80227;SDS011;69539;42.138;24.742;2023-05-20T09:19:13;7.45;;;6.47;;
80227;SDS011;69539;42.138;24.742;2023-05-20T09:21:39;7.45;;;6.10;;
80227;SDS011;69539;42.138;24.742;2023-05-20T09:24:06;8.80;;;6.30;;
80227;SDS011;69539;42.138;24.742;2023-05-20T09:26:31;10.45;;;6.90;;
80227;SDS011;69539;42.138;24.742;2023-05-20T09:28:57;10.05;;;6.93;;
80227;SDS011;69539;42.138;24.742;2023-05-20T09:31:30;8.65;;;6.57;;
80227;SDS011;69539;42.138;24.742;2023-05-20T09:33:59;8.80;;;6.75;;
80227;SDS011;69539;42.138;24.742;2023-05-20T09:36:27;9.35;;;6.75;;
80227;SDS011;69539;42.138;24.742;2023-05-20T09:38:58;30.05;;;27.05;;
80227;SDS011;69539;42.138;24.742;2023-05-20T09:41:42;732.90;;;663.33;;
80227;SDS011;69539;42.138;24.742;2023-05-20T09:44:33;696.67;;;627.53;;
80227;SDS011;69539;42.138;24.742;2023-05-20T09:47:00;523.03;;;467.30;;
80227;SDS011;69539;42.138;24.742;2023-05-20T09:49:27;561.55;;;503.90;;
80227;SDS011;69539;42.138;24.742;2023-05-20T09:51:53;689.08;;;621.65;;
80227;SDS011;69539;42.138;24.742;2023-05-20T09:54:21;370.77;;;329.83;;
80227;SDS011;69539;42.138;24.742;2023-05-20T09:56:48;185.80;;;165.73;;
80227;SDS011;69539;42.138;24.742;2023-05-20T09:59:15;97.40;;;87.15;;
80227;SDS011;69539;42.138;24.742;2023-05-20T10:01:41;62.40;;;56.00;;
80227;SDS011;69539;42.138;24.742;2023-05-20T10:04:08;30.15;;;26.95;;
80227;SDS011;69539;42.138;24.742;2023-05-20T10:12:04;10.07;;;8.60;;
80227;SDS011;69539;42.138;24.742;2023-05-20T10:20:22;8.80;;;7.90;;
80227;SDS011;69539;42.138;24.742;2023-05-20T10:22:57;8.57;;;7.45;;
80227;SDS011;69539;42.138;24.742;2023-05-20T10:25:24;8.00;;;6.82;;
80227;SDS011;69539;42.138;24.742;2023-05-20T10:27:51;9.00;;;7.47;;
80227;SDS011;69539;42.138;24.742;2023-05-20T10:30:27;8.75;;;7.53;;
80227;SDS011;69539;42.138;24.742;2023-05-20T10:32:56;9.25;;;7.40;;
80227;SDS011;69539;42.138;24.742;2023-05-20T10:35:25;8.93;;;7.70;;
80227;SDS011;69539;42.138;24.742;2023-05-20T10:37:51;110.10;;;99.27;;
80227;SDS011;69539;42.138;24.742;2023-05-20T10:40:19;555.47;;;494.58;;
80227;SDS011;69539;42.138;24.742;2023-05-20T10:42:46;442.17;;;344.67;;
80227;SDS011;69539;42.138;24.742;2023-05-20T10:45:25;320.30;;;244.80;;
80227;SDS011;69539;42.138;24.742;2023-05-20T10:47:56;209.30;;;150.35;;
80227;SDS011;69539;42.138;24.742;2023-05-20T10:50:26;136.80;;;105.50;;
80227;SDS011;69539;42.138;24.742;2023-05-20T10:52:53;77.70;;;61.40;;
80227;SDS011;69539;42.138;24.742;2023-05-20T10:55:20;32.10;;;25.17;;
80227;SDS011;69539;42.138;24.742;2023-05-20T10:57:46;18.20;;;15.00;;
80227;SDS011;69539;42.138;24.742;2023-05-20T11:00:12;13.68;;;10.35;;
80227;SDS011;69539;42.138;24.742;2023-05-20T11:02:40;9.55;;;8.48;;
80227;SDS011;69539;42.138;24.742;2023-05-20T11:05:08;9.35;;;7.90;;
80227;SDS011;69539;42.138;24.742;2023-05-20T11:07:36;8.82;;;6.95;;
80227;SDS011;69539;42.138;24.742;2023-05-20T11:10:02;8.35;;;6.90;;
80227;SDS011;69539;42.138;24.742;2023-05-20T11:12:32;8.35;;;6.75;;
80227;SDS011;69539;42.138;24.742;2023-05-20T11:14:58;9.63;;;6.55;;
80227;SDS011;69539;42.138;24.742;2023-05-20T11:17:24;8.23;;;6.13;;
80227;SDS011;69539;42.138;24.742;2023-05-20T11:19:50;7.20;;;6.00;;
80227;SDS011;69539;42.138;24.742;2023-05-20T11:22:16;8.18;;;5.97;;
80227;SDS011;69539;42.138;24.742;2023-05-20T11:24:42;7.55;;;5.47;;
80227;SDS011;69539;42.138;24.742;2023-05-20T11:27:07;6.88;;;5.55;;
80227;SDS011;69539;42.138;24.742;2023-05-20T11:29:33;7.28;;;5.60;;
80227;SDS011;69539;42.138;24.742;2023-05-20T11:31:59;6.38;;;5.70;;
80227;SDS011;69539;42.138;24.742;2023-05-20T11:34:25;6.78;;;5.50;;
80227;SDS011;69539;42.138;24.742;2023-05-20T11:37:00;7.28;;;5.75;;
80227;SDS011;69539;42.138;24.742;2023-05-20T11:39:29;7.20;;;5.32;;
80227;SDS011;69539;42.138;24.742;2023-05-20T11:41:55;6.53;;;5.55;;
80227;SDS011;69539;42.138;24.742;2023-05-20T11:44:22;6.65;;;5.50;;
80227;SDS011;69539;42.138;24.742;2023-05-20T11:46:49;6.88;;;5.70;;
80227;SDS011;69539;42.138;24.742;2023-05-20T11:49:15;6.55;;;5.50;;
80227;SDS011;69539;42.138;24.742;2023-05-20T11:51:41;7.95;;;5.60;;
80227;SDS011;69539;42.138;24.742;2023-05-20T11:54:08;6.80;;;5.22;;
80227;SDS011;69539;42.138;24.742;2023-05-20T11:56:37;7.55;;;5.70;;
80227;SDS011;69539;42.138;24.742;2023-05-20T11:59:05;9.80;;;5.85;;
80227;SDS011;69539;42.138;24.742;2023-05-20T12:01:34;7.93;;;5.85;;
80227;SDS011;69539;42.138;24.742;2023-05-20T12:04:07;7.47;;;5.65;;
80227;SDS011;69539;42.138;24.742;2023-05-20T12:06:33;7.47;;;5.30;;
80227;SDS011;69539;42.138;24.742;2023-05-20T12:09:02;8.32;;;5.35;;
80227;SDS011;69539;42.138;24.742;2023-05-20T12:11:36;6.82;;;5.38;;
80227;SDS011;69539;42.138;24.742;2023-05-20T12:14:05;5.68;;;5.07;;
80227;SDS011;69539;42.138;24.742;2023-05-20T12:16:32;6.57;;;5.60;;
80227;SDS011;69539;42.138;24.742;2023-05-20T12:18:58;9.30;;;6.30;;
80227;SDS011;69539;42.138;24.742;2023-05-20T12:21:24;9.93;;;6.13;;
80227;SDS011;69539;42.138;24.742;2023-05-20T12:23:50;7.70;;;6.40;;
80227;SDS011;69539;42.138;24.742;2023-05-20T12:26:21;9.00;;;6.07;;
80227;SDS011;69539;42.138;24.742;2023-05-20T12:28:53;6.88;;;5.60;;
80227;SDS011;69539;42.138;24.742;2023-05-20T12:31:20;6.88;;;5.60;;
80227;SDS011;69539;42.138;24.742;2023-05-20T12:33:45;5.68;;;5.07;;
80227;SDS011;69539;42.138;24.742;2023-05-20T12:36:11;7.53;;;6.00;;
80227;SDS011;69539;42.138;24.742;2023-05-20T12:38:37;7.10;;;6.13;;
80227;SDS011;69539;42.138;24.742;2023-05-20T12:41:03;7.43;;;6.10;;
80227;SDS011;69539;42.138;24.742;2023-05-20T12:43:29;7.38;;;5.55;;
80227;SDS011;69539;42.138;24.742;2023-05-20T12:45:54;7.53;;;6.25;;
80227;SDS011;69539;42.138;24.742;2023-05-20T12:48:20;8.32;;;6.05;;
80227;SDS011;69539;42.138;24.742;2023-05-20T12:50:46;6.97;;;5.97;;
80227;SDS011;69539;42.138;24.742;2023-05-20T12:53:11;6.80;;;5.57;;
80227;SDS011;69539;42.138;24.742;2023-05-20T12:55:37;7.03;;;5.78;;
80227;SDS011;69539;42.138;24.742;2023-05-20T12:58:05;6.97;;;5.82;;
80227;SDS011;69539;42.138;24.742;2023-05-20T13:00:33;8.25;;;5.85;;
80227;SDS011;69539;42.138;24.742;2023-05-20T13:02:59;8.63;;;5.80;;
80227;SDS011;69539;42.138;24.742;2023-05-20T13:05:24;8.65;;;5.75;;
80227;SDS011;69539;42.138;24.742;2023-05-20T13:07:50;7.38;;;5.63;;
80227;SDS011;69539;42.138;24.742;2023-05-20T13:10:16;7.72;;;6.93;;
80227;SDS011;69539;42.138;24.742;2023-05-20T13:12:42;7.03;;;5.68;;
80227;SDS011;69539;42.138;24.742;2023-05-20T13:15:10;8.50;;;5.90;;
80227;SDS011;69539;42.138;24.742;2023-05-20T13:17:37;7.97;;;6.28;;
80227;SDS011;69539;42.138;24.742;2023-05-20T13:20:03;6.68;;;5.90;;
80227;SDS011;69539;42.138;24.742;2023-05-20T13:22:30;6.90;;;5.90;;
80227;SDS011;69539;42.138;24.742;2023-05-20T13:24:56;8.23;;;6.38;;
80227;SDS011;69539;42.138;24.742;2023-05-20T13:27:22;7.97;;;6.30;;
80227;SDS011;69539;42.138;24.742;2023-05-20T13:29:47;6.68;;;5.90;;
80227;SDS011;69539;42.138;24.742;2023-05-20T13:32:13;7.95;;;6.28;;
80227;SDS011;69539;42.138;24.742;2023-05-20T13:34:39;8.75;;;5.97;;
80227;SDS011;69539;42.138;24.742;2023-05-20T13:37:05;8.95;;;5.63;;
80227;SDS011;69539;42.138;24.742;2023-05-20T13:39:31;7.75;;;5.43;;
80227;SDS011;69539;42.138;24.742;2023-05-20T13:41:57;10.63;;;6.03;;
80227;SDS011;69539;42.138;24.742;2023-05-20T13:44:22;7.10;;;5.28;;
80227;SDS011;69539;42.138;24.742;2023-05-20T13:46:48;7.18;;;5.22;;
80227;SDS011;69539;42.138;24.742;2023-05-20T13:49:14;9.80;;;5.65;;
80227;SDS011;69539;42.138;24.742;2023-05-20T13:51:39;7.05;;;5.63;;
80227;SDS011;69539;42.138;24.742;2023-05-20T13:54:05;7.15;;;5.30;;
80227;SDS011;69539;42.138;24.742;2023-05-20T13:56:31;5.18;;;4.60;;
80227;SDS011;69539;42.138;24.742;2023-05-20T13:58:57;397.25;;;329.15;;
80227;SDS011;69539;42.138;24.742;2023-05-20T14:01:22;269.38;;;236.85;;
80227;SDS011;69539;42.138;24.742;2023-05-20T14:03:48;165.70;;;142.18;;
80227;SDS011;69539;42.138;24.742;2023-05-20T14:06:14;96.93;;;84.75;;
80227;SDS011;69539;42.138;24.742;2023-05-20T14:08:43;56.65;;;49.20;;
80227;SDS011;69539;42.138;24.742;2023-05-20T14:11:09;32.45;;;28.95;;
80227;SDS011;69539;42.138;24.742;2023-05-20T14:13:35;22.25;;;19.67;;
80227;SDS011;69539;42.138;24.742;2023-05-20T14:16:01;14.75;;;12.02;;
80227;SDS011;69539;42.138;24.742;2023-05-20T14:18:26;19.08;;;12.57;;
80227;SDS011;69539;42.138;24.742;2023-05-20T14:20:52;167.02;;;143.93;;
80227;SDS011;69539;42.138;24.742;2023-05-20T14:23:18;529.03;;;471.60;;
80227;SDS011;69539;42.138;24.742;2023-05-20T14:25:43;374.65;;;303.02;;
80227;SDS011;69539;42.138;24.742;2023-05-20T14:28:09;161.48;;;125.43;;
80227;SDS011;69539;42.138;24.742;2023-05-20T14:30:36;296.60;;;256.85;;
80227;SDS011;69539;42.138;24.742;2023-05-20T14:33:01;549.83;;;490.65;;